Rechercher aéroport 
image banner adimage banner adimage banner ad
image banner ad

PN13 - C&W Milliron Flying Field

Situé à Sigel, United States

ICAO - PN13, IATA -

Données fournies par Airmate  

Information générale

Coordonnées: N41°17'14" W79°9'59"
Élévation : 1700 feet MSL.
Variation magnétique : -09° East
Voir autres Aéroports à Pennsylvania

Données opérationnelles

Special qualification required
Heure actuelle UTC:
Heure actuelle locale:
Météo à : KDUJ - Dubois Rgnl ( 25 km )
METAR: KDUJ 131853Z AUTO 25005KT 10SM SCT046 BKN090 28/17 A2988 RMK AO2 SLP104 T02780167 $
TAF: KDUJ 131720Z 1318/1418 26005KT P6SM SCT060 FM132000 27005KT P6SM VCTS BKN060CB FM140100 29003KT P6SM SCT060 FM140800 00000KT 5SM BR BKN020 FM141300 26004KT P6SM BKN025
Voir NOTAMs / SUP AIP / TFR affectant cet aéroport [VIEW]
Fréquences de communication: [VIEW]

Pistes:

Identifiant RWYQFULongueur (ft)Largeur (ft)SurfaceLDA (ft)
092000100GRASS
272000100GRASS
121550100GRASS
301550100GRASS

Coordonnées de l'aéroport

Adresse: Sigel United States

Vue satellite de PN13